createdAt,value
2017-12-04T00:01:59.638Z,27.50
2017-12-04T00:04:31.122Z,27.60
2017-12-04T00:07:06.128Z,27.70
2017-12-04T00:09:39.281Z,30.47
2017-12-04T00:12:10.681Z,28.87
2017-12-04T00:14:44.791Z,30.47
2017-12-04T00:17:17.312Z,31.03
2017-12-04T00:19:50.980Z,28.53
2017-12-04T00:22:23.552Z,29.10
2017-12-04T00:24:58.368Z,26.93
2017-12-04T00:27:30.069Z,28.23
2017-12-04T00:30:04.050Z,29.93
2017-12-04T00:32:37.697Z,27.37
2017-12-04T00:35:12.002Z,28.07
2017-12-04T00:37:44.247Z,27.97
2017-12-04T00:40:19.027Z,27.27
2017-12-04T00:42:52.981Z,28.93
2017-12-04T00:45:24.629Z,28.30
2017-12-04T00:47:57.878Z,29.00
2017-12-04T00:50:30.865Z,28.57
2017-12-04T00:53:08.609Z,29.43
2017-12-04T00:55:41.753Z,28.67
2017-12-04T00:58:39.011Z,29.80
2017-12-04T01:02:25.483Z,27.97
2017-12-04T01:08:07.379Z,27.90
2017-12-04T01:10:39.104Z,26.63
2017-12-04T01:13:10.404Z,27.93
2017-12-04T01:15:42.029Z,30.17
2017-12-04T01:18:13.760Z,26.40
2017-12-04T01:20:45.343Z,29.67
2017-12-04T01:23:16.661Z,27.63
2017-12-04T01:25:49.583Z,27.67
2017-12-04T01:28:21.199Z,28.20
2017-12-04T01:30:52.700Z,26.90
2017-12-04T01:33:24.444Z,24.97
2017-12-04T01:35:56.974Z,25.50
2017-12-04T01:38:28.392Z,25.70
2017-12-04T01:41:02.290Z,25.43
2017-12-04T01:43:35.465Z,27.70
2017-12-04T01:46:12.251Z,26.10
2017-12-04T01:48:43.775Z,24.50
2017-12-04T01:51:15.983Z,25.90
2017-12-04T01:53:49.413Z,25.43
2017-12-04T01:56:22.384Z,23.90
2017-12-04T01:58:54.745Z,24.67
2017-12-04T02:01:26.155Z,25.37
2017-12-04T02:03:58.021Z,26.97
2017-12-04T02:06:30.004Z,24.17
2017-12-04T02:09:02.870Z,24.93
2017-12-04T02:11:34.273Z,23.10
2017-12-04T02:14:06.156Z,25.57
2017-12-04T02:16:37.462Z,26.53
2017-12-04T02:19:11.309Z,26.13
2017-12-04T02:21:43.000Z,24.70
2017-12-04T02:24:14.342Z,26.20
2017-12-04T02:26:45.945Z,24.17
2017-12-04T02:29:17.776Z,23.73
2017-12-04T02:31:49.627Z,24.53
2017-12-04T02:34:21.060Z,25.40
2017-12-04T02:36:52.718Z,24.80
2017-12-04T02:39:27.066Z,26.17
2017-12-04T02:42:04.075Z,24.07
2017-12-04T02:44:36.210Z,25.10
2017-12-04T02:47:09.515Z,25.00
2017-12-04T02:49:41.426Z,23.53
2017-12-04T02:52:13.351Z,25.27
2017-12-04T02:54:45.018Z,23.77
2017-12-04T02:57:16.728Z,25.80
2017-12-04T02:59:48.067Z,23.80
2017-12-04T03:02:23.030Z,22.80
2017-12-04T03:04:59.048Z,22.70
2017-12-04T03:07:30.417Z,22.90
2017-12-04T03:10:03.739Z,22.37
2017-12-04T03:12:35.036Z,22.53
2017-12-04T03:15:06.574Z,22.60
2017-12-04T03:17:39.292Z,23.07
2017-12-04T03:20:10.737Z,22.87
2017-12-04T03:22:42.110Z,22.73
2017-12-04T03:25:13.425Z,25.13
2017-12-04T03:27:45.115Z,23.97
2017-12-04T03:30:16.504Z,25.23
2017-12-04T03:32:47.843Z,25.47
2017-12-04T03:35:20.306Z,26.77
2017-12-04T03:37:53.906Z,25.83
2017-12-04T03:40:27.008Z,25.77
2017-12-04T03:42:58.710Z,24.90
2017-12-04T03:45:31.959Z,27.23
2017-12-04T03:48:04.607Z,25.60
2017-12-04T03:50:36.367Z,27.20
2017-12-04T03:53:07.682Z,25.37
2017-12-04T03:55:39.007Z,27.00
2017-12-04T03:58:14.809Z,23.17
2017-12-04T04:00:47.828Z,25.17
2017-12-04T04:03:20.227Z,21.93
2017-12-04T04:05:53.059Z,24.70
2017-12-04T04:08:24.387Z,23.83
2017-12-04T04:10:58.469Z,24.20
2017-12-04T04:13:29.784Z,24.77
2017-12-04T04:16:05.111Z,22.70
2017-12-04T04:18:36.961Z,23.63
2017-12-04T04:21:08.638Z,23.97
2017-12-04T04:23:40.879Z,24.87
2017-12-04T04:26:13.501Z,21.97
2017-12-04T04:28:46.464Z,22.40
2017-12-04T04:31:19.636Z,22.43
2017-12-04T04:33:51.585Z,21.80
2017-12-04T04:36:23.275Z,22.47
2017-12-04T04:38:55.874Z,21.20
2017-12-04T04:41:27.252Z,22.90
2017-12-04T04:44:01.513Z,20.70
2017-12-04T04:46:33.464Z,20.30
2017-12-04T04:49:06.392Z,22.03
2017-12-04T04:51:37.846Z,22.70
2017-12-04T04:54:09.518Z,21.10
2017-12-04T04:56:41.112Z,19.90
2017-12-04T04:59:12.552Z,21.30
2017-12-04T05:01:44.191Z,22.07
2017-12-04T05:04:16.911Z,23.37
2017-12-04T05:06:48.352Z,19.77
2017-12-04T05:09:22.166Z,19.50
2017-12-04T05:11:54.589Z,21.17
2017-12-04T05:14:27.447Z,21.33
2017-12-04T05:17:03.193Z,20.07
2017-12-04T05:19:35.392Z,21.70
2017-12-04T05:22:08.559Z,20.03
2017-12-04T05:24:41.104Z,19.87
2017-12-04T05:27:13.054Z,21.00
2017-12-04T05:29:44.674Z,20.40
2017-12-04T05:32:16.130Z,19.30
2017-12-04T05:34:47.660Z,20.40
2017-12-04T05:37:19.515Z,19.60
2017-12-04T05:39:50.987Z,20.33
2017-12-04T05:42:22.396Z,20.33
2017-12-04T05:44:54.149Z,18.13
2017-12-04T05:47:25.711Z,19.97
2017-12-04T05:50:06.438Z,18.93
2017-12-04T05:52:38.135Z,20.43
2017-12-04T05:55:09.436Z,19.20
2017-12-04T05:57:41.036Z,19.83
2017-12-04T06:00:12.392Z,20.20
2017-12-04T06:02:43.723Z,18.63
2017-12-04T06:05:16.209Z,18.20
2017-12-04T06:07:49.218Z,19.03
2017-12-04T06:10:22.046Z,18.50
2017-12-04T06:12:54.330Z,19.00
2017-12-04T06:15:26.946Z,19.57
2017-12-04T06:18:00.236Z,18.33
2017-12-04T06:20:36.495Z,18.03
2017-12-04T06:23:09.448Z,18.80
2017-12-04T06:25:41.224Z,18.17
2017-12-04T06:28:12.751Z,16.93
2017-12-04T06:30:44.340Z,16.27
2017-12-04T06:33:15.756Z,19.30
2017-12-04T06:35:47.079Z,18.03
2017-12-04T06:38:20.074Z,17.30
2017-12-04T06:40:51.433Z,18.73
2017-12-04T06:43:22.761Z,19.03
2017-12-04T06:45:54.371Z,19.93
2017-12-04T06:48:25.810Z,18.67
2017-12-04T06:50:58.077Z,18.77
2017-12-04T06:53:29.401Z,18.43
2017-12-04T06:56:02.804Z,19.00
2017-12-04T06:58:38.089Z,17.67
2017-12-04T07:01:13.932Z,16.77
2017-12-04T07:03:45.723Z,19.10
2017-12-04T07:06:17.087Z,16.90
2017-12-04T07:08:48.826Z,17.47
2017-12-04T07:11:20.126Z,20.37
2017-12-04T07:13:51.510Z,17.70
2017-12-04T07:16:23.094Z,18.07
2017-12-04T07:18:54.695Z,16.37
2017-12-04T07:21:26.227Z,18.17
2017-12-04T07:23:58.352Z,19.07
2017-12-04T07:26:32.280Z,15.53
2017-12-04T07:29:07.361Z,17.03
2017-12-04T07:31:38.677Z,17.27
2017-12-04T07:34:09.996Z,18.63
2017-12-04T07:36:41.623Z,18.60
2017-12-04T07:39:22.370Z,16.80
2017-12-04T07:41:54.910Z,17.60
2017-12-04T07:44:29.380Z,17.47
2017-12-04T07:47:09.134Z,17.83
2017-12-04T07:49:40.463Z,17.20
2017-12-04T07:52:12.495Z,16.30
2017-12-04T07:54:44.333Z,16.60
2017-12-04T07:57:15.707Z,15.90
2017-12-04T07:59:47.316Z,18.20
2017-12-04T08:02:18.949Z,17.70
2017-12-04T08:04:56.581Z,16.03
2017-12-04T08:07:30.871Z,17.17
2017-12-04T08:10:12.083Z,17.40
2017-12-04T08:12:46.227Z,17.33
2017-12-04T08:15:17.796Z,18.67
2017-12-04T08:17:49.157Z,17.70
2017-12-04T08:20:21.047Z,17.63
2017-12-04T08:22:52.520Z,19.93
2017-12-04T08:25:24.439Z,18.77
2017-12-04T08:27:56.516Z,18.20
2017-12-04T08:30:28.617Z,17.90
2017-12-04T08:33:01.108Z,17.57
2017-12-04T08:35:32.606Z,18.47
2017-12-04T08:38:11.216Z,19.77
2017-12-04T08:40:42.925Z,18.20
2017-12-04T08:43:15.324Z,18.57
2017-12-04T08:51:37.370Z,20.00
2017-12-04T08:54:09.437Z,19.43
2017-12-04T08:56:42.233Z,19.97
2017-12-04T08:59:13.784Z,19.00
2017-12-04T09:04:27.436Z,19.90
2017-12-04T09:06:58.823Z,18.80
2017-12-04T09:09:31.263Z,17.70
2017-12-04T09:12:05.061Z,19.30
2017-12-04T09:14:36.746Z,20.33
2017-12-04T09:17:08.888Z,18.97
2017-12-04T09:19:40.261Z,19.33
2017-12-04T09:22:12.756Z,21.90
2017-12-04T09:24:44.511Z,20.50
2017-12-04T09:27:16.091Z,20.87
2017-12-04T09:29:47.583Z,19.50
2017-12-04T09:32:20.872Z,18.77
2017-12-04T09:34:52.332Z,20.17
2017-12-04T09:37:25.555Z,21.23
2017-12-04T09:39:57.492Z,19.87
2017-12-04T09:42:31.923Z,19.07
2017-12-04T09:45:04.257Z,19.87
2017-12-04T09:47:36.603Z,19.30
2017-12-04T09:50:08.363Z,17.97
2017-12-04T09:52:39.965Z,21.37
2017-12-04T09:55:11.718Z,20.40
2017-12-04T09:57:43.728Z,19.67
2017-12-04T10:00:16.815Z,19.80
2017-12-04T10:02:48.304Z,20.30
2017-12-04T10:05:22.120Z,19.73
2017-12-04T10:07:53.580Z,19.77
2017-12-04T10:10:25.718Z,20.23
2017-12-04T10:12:57.205Z,21.67
2017-12-04T10:15:28.660Z,20.23
2017-12-04T10:18:00.731Z,20.00
2017-12-04T10:20:32.579Z,18.77
2017-12-04T10:23:04.529Z,19.63
2017-12-04T10:25:37.105Z,19.83
2017-12-04T10:28:10.868Z,20.10
2017-12-04T10:30:42.266Z,20.30
2017-12-04T10:33:13.647Z,21.37
2017-12-04T10:35:45.034Z,19.60
2017-12-04T10:38:16.825Z,21.90
2017-12-04T10:40:54.502Z,18.60
2017-12-04T10:43:27.910Z,19.37
2017-12-04T10:45:59.680Z,20.17
2017-12-04T10:48:31.119Z,19.50
2017-12-04T10:51:02.922Z,18.07
2017-12-04T10:53:34.424Z,17.97
2017-12-04T10:56:07.936Z,19.13
2017-12-04T10:58:39.812Z,17.40
2017-12-04T11:01:11.474Z,16.77
2017-12-04T11:03:49.808Z,17.07
2017-12-04T11:06:23.947Z,19.40
2017-12-04T11:08:55.562Z,18.00
2017-12-04T11:11:27.362Z,17.53
2017-12-04T11:13:58.898Z,16.90
2017-12-04T11:16:36.046Z,16.97
2017-12-04T11:19:07.822Z,17.83
2017-12-04T11:21:39.247Z,16.00
2017-12-04T11:24:12.490Z,16.63
2017-12-04T11:26:44.066Z,16.30
2017-12-04T11:29:15.475Z,15.33
2017-12-04T11:31:47.481Z,14.10
2017-12-04T11:34:19.770Z,16.80
2017-12-04T11:36:51.622Z,14.93
2017-12-04T11:39:23.353Z,16.63
2017-12-04T11:41:55.155Z,17.20
2017-12-04T11:44:29.089Z,17.47
2017-12-04T11:47:01.974Z,15.80
2017-12-04T11:49:33.419Z,14.60
2017-12-04T11:52:06.626Z,14.40
2017-12-04T11:54:38.867Z,16.57
2017-12-04T11:57:10.284Z,16.33
2017-12-04T11:59:41.985Z,15.53
2017-12-04T12:02:14.431Z,14.97
2017-12-04T12:04:46.138Z,15.57
2017-12-04T12:07:17.614Z,15.23
2017-12-04T12:09:49.128Z,16.10
2017-12-04T12:12:22.173Z,16.77
2017-12-04T12:14:53.774Z,15.50
2017-12-04T12:17:25.333Z,15.60
2017-12-04T12:19:57.505Z,15.20
2017-12-04T12:22:30.602Z,16.00
2017-12-04T12:25:02.629Z,16.80
2017-12-04T12:27:34.507Z,16.20
2017-12-04T12:30:07.924Z,16.70
2017-12-04T12:32:39.361Z,14.50
2017-12-04T12:35:11.204Z,16.23
2017-12-04T12:41:43.917Z,15.23
2017-12-04T12:44:16.003Z,16.30
2017-12-04T12:46:49.481Z,15.27
2017-12-04T12:49:21.374Z,17.87
2017-12-04T12:51:53.799Z,15.87
2017-12-04T12:54:25.452Z,17.43
2017-12-04T12:56:57.217Z,17.00
2017-12-04T12:59:30.499Z,17.87
2017-12-04T13:04:39.159Z,17.20
2017-12-04T13:07:10.700Z,17.10
2017-12-04T13:12:20.295Z,18.30
2017-12-04T13:14:52.404Z,18.10
2017-12-04T13:17:29.831Z,17.33
2017-12-04T13:20:09.258Z,16.97
2017-12-04T13:22:41.198Z,17.33
2017-12-04T13:25:12.514Z,17.63
2017-12-04T13:27:44.133Z,17.87
2017-12-04T13:30:15.682Z,19.40
2017-12-04T13:39:12.282Z,17.10
2017-12-04T13:41:43.958Z,17.33
2017-12-04T13:44:15.625Z,15.43
2017-12-04T13:46:47.383Z,16.10
2017-12-04T13:49:18.785Z,16.70
2017-12-04T13:51:50.390Z,17.60
2017-12-04T13:54:22.922Z,17.50
2017-12-04T13:56:54.536Z,16.33
2017-12-04T13:59:26.200Z,17.23
2017-12-04T14:01:57.557Z,16.57
2017-12-04T14:04:29.068Z,16.57
2017-12-04T14:07:00.683Z,15.00
2017-12-04T14:09:36.589Z,14.97
2017-12-04T14:12:09.147Z,14.40
2017-12-04T14:14:41.623Z,13.73
2017-12-04T14:17:13.429Z,14.40
2017-12-04T14:19:49.784Z,14.00
2017-12-04T14:22:21.140Z,13.27
2017-12-04T14:24:52.754Z,11.80
2017-12-04T14:27:24.456Z,12.37
2017-12-04T14:29:55.799Z,12.50
2017-12-04T14:32:30.143Z,12.83
2017-12-04T14:35:01.675Z,13.43
2017-12-04T14:37:33.299Z,14.97
2017-12-04T14:42:59.971Z,13.57
2017-12-04T14:45:31.306Z,13.93
2017-12-04T14:48:04.925Z,12.73
2017-12-04T14:50:36.683Z,13.63
2017-12-04T14:53:08.107Z,12.63
2017-12-04T14:55:39.508Z,12.90
2017-12-04T14:58:11.474Z,13.50
2017-12-04T15:00:42.852Z,11.90
2017-12-04T15:03:14.460Z,11.57
2017-12-04T15:05:45.915Z,14.20
2017-12-04T15:08:17.394Z,13.30
2017-12-04T15:10:48.813Z,12.70
2017-12-04T15:13:20.308Z,14.30
2017-12-04T15:15:52.058Z,14.57
2017-12-04T15:18:24.472Z,12.90
2017-12-04T15:20:56.266Z,12.60
2017-12-04T15:23:27.909Z,13.27
2017-12-04T15:25:59.400Z,12.80
2017-12-04T15:28:31.394Z,12.90
2017-12-04T15:31:03.369Z,13.57
2017-12-04T15:33:35.145Z,11.73
2017-12-04T15:36:07.416Z,13.50
2017-12-04T15:38:38.777Z,12.07
2017-12-04T15:41:10.111Z,12.90
2017-12-04T15:43:41.521Z,12.50
2017-12-04T15:46:14.574Z,13.10
2017-12-04T15:48:45.982Z,12.07
2017-12-04T15:51:17.791Z,13.17
2017-12-04T15:53:49.187Z,14.13
2017-12-04T15:56:20.669Z,14.10
2017-12-04T15:58:52.326Z,13.77
2017-12-04T16:01:24.106Z,12.77
2017-12-04T16:03:55.478Z,13.93
2017-12-04T16:06:27.259Z,14.60
2017-12-04T16:08:58.611Z,14.47
2017-12-04T16:11:32.188Z,13.07
2017-12-04T16:14:05.315Z,14.70
2017-12-04T16:16:37.016Z,14.60
2017-12-04T16:19:08.448Z,13.00
2017-12-04T16:21:40.135Z,15.30
2017-12-04T16:24:12.526Z,15.67
2017-12-04T16:26:43.874Z,17.70
2017-12-04T16:29:15.535Z,14.47
2017-12-04T16:31:47.005Z,13.93
2017-12-04T16:34:18.585Z,12.60
2017-12-04T16:36:50.229Z,14.10
2017-12-04T16:39:21.569Z,16.40
2017-12-04T16:41:53.270Z,17.27
2017-12-04T16:44:24.903Z,15.63
2017-12-04T16:46:56.249Z,15.30
2017-12-04T16:49:27.981Z,16.20
2017-12-04T16:51:59.491Z,14.90
2017-12-04T16:54:31.393Z,15.87
2017-12-04T16:57:03.475Z,14.80
2017-12-04T16:59:34.926Z,14.60
2017-12-04T17:02:07.367Z,14.57
2017-12-04T17:07:34.649Z,13.53
2017-12-04T17:10:10.836Z,13.10
2017-12-04T17:12:42.445Z,14.87
2017-12-04T17:15:13.802Z,14.30
2017-12-04T17:17:45.529Z,13.53
2017-12-04T17:20:17.208Z,16.17
2017-12-04T17:22:48.584Z,14.57
2017-12-04T17:25:20.143Z,15.80
2017-12-04T17:27:52.092Z,15.60
2017-12-04T17:30:23.716Z,14.37
2017-12-04T17:32:55.485Z,14.00
2017-12-04T17:38:08.738Z,12.50
2017-12-04T17:40:40.130Z,13.33
2017-12-04T17:43:11.547Z,13.70
2017-12-04T17:45:43.103Z,15.27
2017-12-04T17:48:15.326Z,15.13
2017-12-04T17:50:47.132Z,15.20
2017-12-04T17:53:18.551Z,17.30
2017-12-04T17:55:50.182Z,19.10
2017-12-04T17:58:22.207Z,16.60
2017-12-04T18:00:53.717Z,14.60
2017-12-04T18:03:25.465Z,15.30
2017-12-04T18:05:56.933Z,14.80
2017-12-04T18:08:29.746Z,14.93
2017-12-04T18:11:15.777Z,14.27
2017-12-04T18:13:47.193Z,14.80
2017-12-04T18:16:18.877Z,14.40
2017-12-04T18:18:50.289Z,16.50
2017-12-04T18:21:22.316Z,16.27
2017-12-04T18:23:54.900Z,16.87
2017-12-04T18:26:26.566Z,16.53
2017-12-04T18:28:58.306Z,18.33
2017-12-04T18:31:31.996Z,17.57
2017-12-04T18:34:06.851Z,16.57
2017-12-04T18:36:38.272Z,17.67
2017-12-04T18:39:09.712Z,17.17
2017-12-04T18:41:41.673Z,18.87
2017-12-04T18:44:16.010Z,19.23
2017-12-04T18:46:53.924Z,18.87
2017-12-04T18:49:25.810Z,18.00
2017-12-04T18:51:57.230Z,18.83
2017-12-04T18:54:32.050Z,16.80
2017-12-04T18:57:03.804Z,17.90
2017-12-04T18:59:38.090Z,18.70
2017-12-04T19:02:10.978Z,18.90
2017-12-04T19:04:43.230Z,20.43
2017-12-04T19:07:14.672Z,19.00
2017-12-04T19:09:47.788Z,17.40
2017-12-04T19:12:20.879Z,18.73
2017-12-04T19:14:52.259Z,18.10
2017-12-04T19:17:24.230Z,18.23
2017-12-04T19:19:55.939Z,18.13
2017-12-04T19:22:27.365Z,16.73
2017-12-04T19:24:59.050Z,17.60
2017-12-04T19:27:32.168Z,16.90
2017-12-04T19:30:10.775Z,16.90
2017-12-04T19:35:38.364Z,17.97
2017-12-04T19:38:09.953Z,17.97
2017-12-04T19:40:41.428Z,15.30
2017-12-04T19:43:13.423Z,17.47
2017-12-04T19:45:46.033Z,16.50
2017-12-04T19:48:18.206Z,17.50
2017-12-04T19:50:50.053Z,17.27
2017-12-04T19:53:21.520Z,16.03
2017-12-04T19:55:53.264Z,17.53
2017-12-04T19:58:25.341Z,17.10
2017-12-04T20:00:56.773Z,18.50
2017-12-04T20:03:29.111Z,18.00
2017-12-04T20:06:01.034Z,17.63
2017-12-04T20:08:33.278Z,18.80
2017-12-04T20:11:05.225Z,18.27
2017-12-04T20:13:37.747Z,17.47
2017-12-04T20:16:09.877Z,19.47
2017-12-04T20:18:41.543Z,19.27
2017-12-04T20:21:12.942Z,18.93
2017-12-04T20:23:44.688Z,19.00
2017-12-04T20:26:17.987Z,19.13
2017-12-04T20:28:49.508Z,18.40
2017-12-04T20:31:21.211Z,17.70
2017-12-04T20:33:52.672Z,18.00
2017-12-04T20:36:24.576Z,18.87
2017-12-04T20:38:59.856Z,17.57
2017-12-04T20:41:32.473Z,16.20
2017-12-04T20:44:08.959Z,18.03
2017-12-04T20:46:40.628Z,18.23
2017-12-04T20:49:12.347Z,17.37
2017-12-04T20:51:43.851Z,18.37
2017-12-04T20:54:15.867Z,16.70
2017-12-04T20:56:47.370Z,19.70
2017-12-04T20:59:19.108Z,16.60
2017-12-04T21:01:50.860Z,18.70
2017-12-04T21:04:22.448Z,17.27
2017-12-04T21:06:54.743Z,17.90
2017-12-04T21:11:39.195Z,17.63
2017-12-04T21:14:21.374Z,21.50
2017-12-04T21:17:36.234Z,18.30
2017-12-04T21:20:08.319Z,18.30
2017-12-04T21:22:40.462Z,17.40
2017-12-04T21:25:12.542Z,17.83
2017-12-04T21:27:45.415Z,19.20
2017-12-04T21:30:17.367Z,17.40
2017-12-04T21:32:49.961Z,17.83
2017-12-04T21:35:21.768Z,17.50
2017-12-04T21:37:53.618Z,19.53
2017-12-04T21:40:26.312Z,19.73
2017-12-04T21:42:58.047Z,20.23
2017-12-04T21:45:29.763Z,19.27
2017-12-04T21:48:01.798Z,20.57
2017-12-04T21:50:36.546Z,21.07
2017-12-04T21:53:08.248Z,21.50
2017-12-04T21:55:41.144Z,20.97
2017-12-04T21:58:13.453Z,21.63
2017-12-04T22:00:44.894Z,19.80
2017-12-04T22:03:16.314Z,21.40
2017-12-04T22:05:49.680Z,21.63
2017-12-04T22:08:21.219Z,19.90
2017-12-04T22:10:52.939Z,19.73
2017-12-04T22:13:24.585Z,20.97
2017-12-04T22:15:57.077Z,18.83
2017-12-04T22:18:28.562Z,20.63
2017-12-04T22:21:00.303Z,20.70
2017-12-04T22:23:32.002Z,21.47
2017-12-04T22:26:04.906Z,20.00
2017-12-04T22:28:36.377Z,19.97
2017-12-04T22:31:08.112Z,20.03
2017-12-04T22:33:40.199Z,19.70
2017-12-04T22:36:11.824Z,20.13
2017-12-04T22:38:43.653Z,20.20
2017-12-04T22:41:15.140Z,20.23
2017-12-04T22:43:47.062Z,22.33
2017-12-04T22:46:19.529Z,22.07
2017-12-04T22:48:51.806Z,23.20
2017-12-04T22:51:23.233Z,21.50
2017-12-04T22:53:54.988Z,22.80
2017-12-04T22:56:26.647Z,22.37
2017-12-04T22:58:59.151Z,22.57
2017-12-04T23:01:31.235Z,22.77
2017-12-04T23:04:04.973Z,23.03
2017-12-04T23:06:36.992Z,23.83
2017-12-04T23:09:09.116Z,22.17
2017-12-04T23:11:42.350Z,23.77
2017-12-04T23:14:15.502Z,22.73
2017-12-04T23:16:47.292Z,21.60
2017-12-04T23:19:18.715Z,22.10
2017-12-04T23:21:50.865Z,22.47
2017-12-04T23:24:23.383Z,22.10
2017-12-04T23:26:54.935Z,22.07
2017-12-04T23:29:27.398Z,20.37
2017-12-04T23:31:58.912Z,21.60
2017-12-04T23:34:30.342Z,19.57
2017-12-04T23:37:02.326Z,21.20
2017-12-04T23:39:33.906Z,18.10
2017-12-04T23:42:06.418Z,19.90
2017-12-04T23:44:37.768Z,19.70
2017-12-04T23:47:09.371Z,19.73
2017-12-04T23:49:40.731Z,18.20
2017-12-04T23:52:12.721Z,19.40
2017-12-04T23:54:44.571Z,17.90
2017-12-04T23:57:15.875Z,18.23
2017-12-04T23:59:47.179Z,19.73
